Latest Weather Observations for Stawell

IDV60801

Issued at 11:02 pm EDT Friday 19 December 2014 (issued every 30 minutes, with the page automatically refreshed every 10 minutes)

About weather observations | Map of weather stations | Latest weather observations for VIC | Other Formats
Station Details ID: 079105 Name: STAWELL AERODROME Lat: -37.07 Lon: 142.74 Height: 235.36 m
Data from the previous 72 hours. | See also: Recent months at Stawell
Date/Time
EDT
Temp
°C
App
Temp
°C
Dew
Point
Rel
Hum
%
Delta-T
°C
Wind Press
QNH
hPa
Press
MSL
hPa
Rain
since 9 am
mm
Dir
 
Spd
km/h
Gust
km/h
Spd
kts
Gust
kts
19/11:00pm 14.5 10.8 6.1 57 4.1 SSE 15 24 8 13 1019.1 - 0.0
19/10:30pm 15.1 11.3 5.9 54 4.5 SSE 15 28 8 15 1019.0 - 0.0
19/10:00pm 15.7 11.1 5.6 51 4.9 SSE 19 28 10 15 1018.7 - 0.0
19/09:30pm 16.4 11.2 5.4 48 5.3 S 22 32 12 17 1018.4 - 0.0
19/09:00pm 17.1 10.7 5.4 46 5.7 S 28 39 15 21 1018.0 1018.2 0.0
19/08:30pm 18.6 12.6 5.1 41 6.6 S 26 37 14 20 1017.9 - 0.0
19/08:00pm 20.4 15.9 4.0 34 7.9 SSW 17 24 9 13 1017.4 - 0.0
19/07:30pm 21.1 16.1 3.8 32 8.4 SSW 19 30 10 16 1017.0 - 0.0
19/07:00pm 21.2 16.2 3.4 31 8.6 S 19 32 10 17 1016.7 - 0.0
19/06:30pm 22.1 18.0 4.2 31 8.8 SSW 15 22 8 12 1016.5 - 0.0
19/06:00pm 21.7 17.5 3.9 31 8.7 SSW 15 30 8 16 1016.3 1016.6 0.0
19/05:30pm 21.9 17.0 4.0 31 8.8 SW 19 26 10 14 1016.4 - 0.0
19/05:00pm 20.9 16.7 3.6 32 8.4 SSW 15 26 8 14 1016.5 - 0.0
19/04:30pm 20.9 16.3 3.6 32 8.4 SSW 17 24 9 13 1016.6 - 0.0
19/04:00pm 20.5 15.5 3.7 33 8.1 S 19 26 10 14 1016.6 - 0.0
19/03:30pm 20.2 17.1 3.4 33 8.0 W 9 20 5 11 1016.7 - 0.0
19/03:00pm 19.6 15.3 3.3 34 7.7 SW 15 30 8 16 1016.7 1017.0 0.0
19/02:30pm 19.9 16.6 2.7 32 8.1 SSW 9 22 5 12 1016.8 - 0.0
19/02:00pm 19.4 14.0 2.3 32 8.0 SW 20 32 11 17 1016.9 - 0.0
19/01:30pm 19.2 14.9 3.0 34 7.6 SW 15 24 8 13 1017.1 - 0.0
19/01:00pm 18.3 13.6 3.0 36 7.2 WSW 17 26 9 14 1017.4 - 0.0
19/12:30pm 17.6 13.0 3.9 40 6.5 WSW 17 24 9 13 1017.4 - 0.0
19/12:00pm 17.2 12.2 3.5 40 6.4 SSW 19 33 10 18 1017.3 1017.6 0.0
19/11:30am 17.2 12.7 4.2 42 6.2 S 17 24 9 13 1017.5 - 0.0
19/11:00am 15.7 10.6 3.2 43 5.8 S 19 28 10 15 1017.6 - 0.0
19/10:30am 15.2 10.9 3.0 44 5.6 SW 15 22 8 12 1017.6 - 0.0
19/10:00am 15.5 10.4 3.3 44 5.6 S 19 30 10 16 1017.4 - 0.0
19/09:30am 15.3 9.9 4.4 48 5.1 S 22 32 12 17 1017.2 - 0.0
19/09:00am 14.4 9.0 4.7 52 4.6 S 22 33 12 18 1017.0 1017.3 3.2
19/08:30am 13.0 10.1 4.4 56 4.0 SSW 9 17 5 9 1017.0 - 3.2
19/08:00am 12.0 9.8 6.1 67 2.8 SW 7 9 4 5 1016.8 - 3.2
19/07:30am 11.1 8.8 5.6 69 2.6 SSW 7 9 4 5 1016.4 - 3.2
19/07:00am 10.1 9.2 6.1 76 1.9 CALM 0 0 0 0 1016.0 - 3.2
19/06:30am 8.2 6.0 6.0 86 1.0 SSW 7 9 4 5 1015.6 - 3.2
19/06:00am 7.3 5.1 5.1 86 1.0 S 6 7 3 4 1015.4 1015.7 3.2
19/05:30am 8.2 5.9 5.7 84 1.1 S 7 11 4 6 1015.2 - 3.2
19/05:00am 8.7 6.4 5.8 82 1.3 SSE 7 9 4 5 1015.0 - 3.2
19/04:30am 8.3 5.9 5.4 82 1.3 SSE 7 11 4 6 1014.7 - 3.2
19/04:00am 9.1 6.9 6.4 83 1.3 WSW 7 9 4 5 1014.3 - 3.2
19/03:30am 8.8 6.7 5.9 82 1.3 S 6 7 3 4 1014.3 - 3.2
19/03:00am 8.8 6.8 6.1 83 1.3 S 6 7 3 4 1014.2 1014.4 3.2
19/02:30am 9.9 8.0 6.8 81 1.5 S 6 7 3 4 1014.4 - 3.2
19/02:00am 10.7 8.5 6.3 74 2.1 S 7 9 4 5 1014.4 - 3.2
19/01:30am 10.5 7.8 5.7 72 2.2 SSW 9 11 5 6 1014.4 - 3.2
19/01:00am 11.1 8.4 5.8 70 2.5 SSW 9 13 5 7 1014.2 - 3.2
19/12:30am 11.3 8.3 5.8 69 2.6 SSW 11 15 6 8 1014.3 - 3.2
19/12:00am 11.4 8.4 5.9 69 2.6 SSW 11 13 6 7 1014.0 1014.2 3.2
 
Date/Time
EDT
Temp
°C
App
Temp
°C
Dew
Point
Rel
Hum
%
Delta-T
°C
Wind Press
QNH
hPa
Press
MSL
hPa
Rain
since 9 am
mm
Dir
 
Spd
km/h
Gust
km/h
Spd
kts
Gust
kts
18/11:30pm 12.1 9.9 6.2 67 2.8 SSE 7 13 4 7 1014.0 - 3.2
18/11:00pm 12.6 9.3 6.4 66 3.0 SSE 13 17 7 9 1013.8 - 3.2
18/10:30pm 13.0 10.1 6.4 64 3.2 S 11 20 6 11 1013.6 - 3.2
18/10:00pm 13.9 9.4 6.3 60 3.7 S 19 26 10 14 1013.0 - 3.2
18/09:30pm 13.9 11.3 6.0 59 3.8 SW 9 13 5 7 1012.5 - 3.2
18/09:00pm 14.8 11.7 5.6 54 4.4 SSW 11 19 6 10 1012.2 1012.5 3.2
18/08:30pm 15.5 11.4 6.2 54 4.6 SSW 17 26 9 14 1011.6 - 3.2
18/08:00pm 16.1 11.4 6.0 51 4.9 SSW 20 35 11 19 1011.0 - 3.2
18/07:30pm 17.3 12.9 6.5 49 5.4 SSW 19 30 10 16 1010.3 - 3.2
18/07:00pm 18.5 13.6 5.0 41 6.6 SSW 20 37 11 20 1009.7 - 3.2
18/06:30pm 18.9 13.9 4.7 39 6.9 SSW 20 30 11 16 1009.0 - 3.2
18/06:00pm 19.2 14.6 6.7 44 6.4 WSW 20 32 11 17 1008.5 1008.8 3.2
18/05:30pm 19.3 15.3 8.9 51 5.5 WSW 20 35 11 19 1008.3 - 3.2
18/05:00pm 18.0 14.2 9.9 59 4.3 SW 20 41 11 22 1008.5 - 3.2
18/04:30pm 18.1 14.4 10.0 59 4.3 W 20 35 11 19 1008.3 - 3.2
18/04:00pm 18.6 15.2 10.7 60 4.3 W 19 33 10 18 1007.8 - 3.2
18/03:30pm 17.0 14.5 11.1 68 3.2 SW 15 22 8 12 1007.8 - 3.2
18/03:00pm 16.8 13.5 11.7 72 2.8 W 20 32 11 17 1007.5 1007.8 3.2
18/02:30pm 16.4 13.3 13.3 82 1.8 WSW 22 43 12 23 1007.4 - 3.2
18/02:00pm 15.1 9.6 9.0 67 3.2 WSW 28 63 15 34 1007.4 - 1.0
18/01:30pm 17.8 14.0 9.2 57 4.5 WSW 19 37 10 20 1006.8 - 0.0
18/01:00pm 19.2 14.3 7.0 45 6.2 NW 22 41 12 22 1006.8 - 0.0
18/12:30pm 17.6 13.8 7.4 51 5.2 W 17 39 9 21 1007.2 - 0.0
18/12:00pm 17.3 13.8 7.1 51 5.2 NW 15 26 8 14 1007.2 1007.4 0.0
18/11:30am 17.5 13.4 6.4 48 5.5 W 17 26 9 14 1007.4 - 0.0
18/11:00am 17.0 12.8 5.6 47 5.6 WNW 17 32 9 17 1007.5 - 0.0
18/10:30am 16.6 12.5 4.3 44 5.8 W 15 24 8 13 1007.5 - 0.0
18/10:00am 17.4 12.3 4.0 41 6.4 WNW 20 33 11 18 1007.1 - 0.0
18/09:30am 17.5 12.7 4.8 43 6.1 NW 19 20 10 11 1006.9 - 0.0
18/09:00am 16.4 12.9 5.4 48 5.3 W 13 20 7 11 1007.0 1007.2 0.0
18/08:30am 15.3 12.2 5.5 52 4.7 WNW 11 17 6 9 1006.8 - 0.0
18/08:00am 13.6 11.6 6.2 61 3.6 NW 6 7 3 4 1006.5 - 0.0
18/07:30am 12.2 11.2 5.8 65 3.0 CALM 0 4 0 2 1006.4 - 0.0
18/07:00am 10.3 9.0 5.9 74 2.1 ENE 2 7 1 4 1005.8 - 0.0
18/06:30am 9.1 7.4 5.7 79 1.6 NE 4 6 2 3 1005.5 - 0.0
18/06:00am 9.0 8.0 5.4 78 1.7 CALM 0 0 0 0 1005.5 1005.7 0.0
18/05:30am 8.2 6.9 4.2 76 1.8 CALM 0 6 0 3 1005.4 - 0.0
18/05:00am 9.6 7.5 5.8 77 1.8 ENE 6 7 3 4 1004.9 - 0.0
18/04:30am 9.6 8.3 5.8 77 1.8 E 2 6 1 3 1005.0 - 0.0
18/04:00am 9.9 7.6 5.5 74 2.0 E 7 9 4 5 1004.9 - 0.0
18/03:30am 10.1 8.3 5.3 72 2.2 SSE 4 7 2 4 1005.0 - 0.0
18/03:00am 9.4 7.1 4.8 73 2.1 WSW 6 9 3 5 1005.2 1005.4 0.0
18/02:30am 10.1 8.8 4.0 66 2.7 CALM 0 0 0 0 1005.3 - 0.0
18/02:00am 11.0 8.7 4.9 66 2.8 S 6 9 3 5 1005.4 - 0.0
18/01:30am 12.0 9.6 5.4 64 3.1 SSW 7 9 4 5 1005.7 - 0.0
18/01:00am 13.2 10.1 5.4 59 3.7 S 11 17 6 9 1005.8 - 0.0
18/12:30am 13.6 9.3 5.3 57 3.9 S 17 26 9 14 1005.9 - 0.0
18/12:00am 13.9 9.2 5.3 56 4.1 S 19 33 10 18 1006.0 1006.2 0.0
 
Date/Time
EDT
Temp
°C
App
Temp
°C
Dew
Point
Rel
Hum
%
Delta-T
°C
Wind Press
QNH
hPa
Press
MSL
hPa
Rain
since 9 am
mm
Dir
 
Spd
km/h
Gust
km/h
Spd
kts
Gust
kts
17/11:30pm 14.7 10.1 5.5 54 4.4 S 19 30 10 16 1006.1 - 0.0
17/11:00pm 15.5 11.2 5.1 50 5.0 S 17 26 9 14 1006.3 - 0.0
17/10:30pm 16.9 13.7 4.9 45 5.8 SSE 11 19 6 10 1006.2 - 0.0
17/10:00pm 17.9 14.1 4.1 40 6.6 S 13 20 7 11 1006.5 - 0.0
17/09:30pm 18.2 15.0 0.8 31 7.8 W 7 9 4 5 1006.2 - 0.0
17/09:00pm 19.8 16.6 0.8 28 8.6 W 7 13 4 7 1006.0 1006.2 0.0
17/08:30pm 20.9 17.7 0.7 26 9.2 W 7 15 4 8 1005.8 - 0.0
17/08:00pm 22.0 16.8 -0.1 23 10.0 NW 17 22 9 12 1005.7 - 0.0
17/07:30pm 22.3 18.3 0.2 23 10.1 WNW 11 17 6 9 1005.4 - 0.0
17/07:00pm 23.0 19.9 0.2 22 10.5 WNW 6 13 3 7 1005.2 - 0.0
17/06:30pm 23.0 18.3 0.8 23 10.3 WNW 15 20 8 11 1005.3 - 0.0
17/06:00pm 23.3 18.8 -0.2 21 10.8 WNW 13 20 7 11 1005.3 1005.5 0.0
17/05:30pm 22.8 18.0 0.0 22 10.4 W 15 28 8 15 1005.4 - 0.0
17/05:00pm 23.3 19.7 0.4 22 10.6 W 9 19 5 10 1005.6 - 0.0
17/04:30pm 22.9 18.9 0.7 23 10.3 SW 11 20 6 11 1005.7 - 0.0
17/04:00pm 22.2 18.1 0.1 23 10.1 E 11 15 6 8 1005.8 - 0.0
17/03:30pm 21.7 18.1 0.3 24 9.8 E 9 13 5 7 1006.3 - 0.0
17/03:00pm 21.9 16.8 1.0 25 9.7 N 17 32 9 17 1006.5 1006.7 0.0
17/02:30pm 20.8 15.7 0.6 26 9.2 NNW 17 26 9 14 1007.0 - 0.0
17/02:00pm 20.4 15.7 0.8 27 8.9 W 15 22 8 12 1007.3 - 0.0
17/01:30pm 19.7 14.5 0.2 27 8.7 NNW 17 22 9 12 1007.6 - 0.0
17/01:00pm 19.1 14.3 0.2 28 8.4 WNW 15 24 8 13 1008.2 - 0.0
17/12:30pm 19.7 15.4 1.2 29 8.5 NNW 13 30 7 16 1008.2 - 0.0
17/12:00pm 17.5 14.0 1.1 33 7.4 WSW 9 19 5 10 1008.4 1008.7 0.0
17/11:30am 17.1 13.3 1.5 35 7.0 W 11 20 6 11 1008.5 - 0.0
17/11:00am 16.3 12.0 1.2 36 6.7 NW 13 24 7 13 1008.7 - 0.0
17/10:30am 15.9 11.7 1.6 38 6.4 WSW 13 20 7 11 1008.9 - 0.0
17/10:00am 15.4 11.2 1.9 40 6.0 WSW 13 24 7 13 1009.0 - 0.0
17/09:30am 14.7 11.1 3.2 46 5.3 W 11 19 6 10 1009.2 - 0.0
17/09:00am 14.0 10.8 2.9 47 5.0 W 9 19 5 10 1009.3 1009.5 0.0
17/08:30am 13.2 10.2 4.1 54 4.2 W 9 15 5 8 1009.2 - 0.0
17/08:00am 12.1 9.8 5.7 65 3.0 SW 7 11 4 6 1009.0 - 0.0
17/07:30am 10.8 9.0 5.6 70 2.4 NNW 4 7 2 4 1008.7 - 0.0
17/07:00am 9.4 8.3 5.2 75 1.9 CALM 0 0 0 0 1008.3 - 0.0
17/06:30am 7.8 6.6 4.4 79 1.5 CALM 0 6 0 3 1007.9 - 0.0
17/06:00am 6.8 5.5 3.9 82 1.3 CALM 0 0 0 0 1007.4 1007.7 0.0
17/05:30am 7.5 5.1 4.1 79 1.5 ENE 6 7 3 4 1007.0 - 0.0
17/05:00am 8.5 7.3 4.7 77 1.7 CALM 0 0 0 0 1006.5 - 0.0
17/04:30am 8.1 5.7 4.1 76 1.8 SW 6 7 3 4 1006.4 - 0.0
17/04:00am 9.7 7.4 4.7 71 2.3 S 6 7 3 4 1006.1 - 0.0
17/03:30am 10.4 8.0 4.5 67 2.7 NW 6 7 3 4 1006.2 - 0.0
17/03:00am 10.0 7.6 4.2 67 2.6 SW 6 9 3 5 1006.3 1006.5 0.0
17/02:30am 11.3 8.7 4.3 62 3.2 S 7 11 4 6 1006.2 - 0.0
17/02:00am 11.6 8.6 4.1 60 3.4 S 9 13 5 7 1006.5 - 0.0
17/01:30am 11.7 8.7 4.0 59 3.5 S 9 17 5 9 1006.4 - 0.0
17/01:00am 12.0 7.0 3.5 56 3.8 SW 19 28 10 15 1006.2 - 0.0
17/12:30am 12.3 7.5 2.7 52 4.3 SW 17 28 9 15 1006.4 - 0.0
17/12:00am 12.7 8.7 3.1 52 4.3 SW 13 22 7 12 1006.0 1006.2 0.0
 
Date/Time
EDT
Temp
°C
App
Temp
°C
Dew
Point
Rel
Hum
%
Delta-T
°C
Wind Press
QNH
hPa
Press
MSL
hPa
Rain
since 9 am
mm
Dir
 
Spd
km/h
Gust
km/h
Spd
kts
Gust
kts
16/11:30pm 12.5 9.2 2.7 51 4.3 W 9 15 5 8 1005.7 - 0.0

Other Formats:

Comma delimited format used in spreadsheet applications
http://www.bom.gov.au/fwo/IDV60801/IDV60801.94836.axf

JavaScript Object Notation format (JSON) in row-major order
http://www.bom.gov.au/fwo/IDV60801/IDV60801.94836.json